Time;durP1;ratioP1;P1;durP2;ratioP2;P2;SDS_P1;SDS_P2;PMS_P1;PMS_P2;Temp;Humidity;BMP_temperature;BMP_pressure;BME280_temperature;BME280_humidity;BME280_pressure;Samples;Min_cycle;Max_cycle;Signal;HPM_P1;HPM_P2
2022/12/02 00:00:25;;;;;;;1.63;1.03;;;5.10;1.00;;;;;;6128650;23;20965;-77
2022/12/02 00:02:56;;;;;;;0.60;0.10;;;5.10;1.00;;;;;;6128507;23;20426;-76
2022/12/02 00:05:29;;;;;;;4.57;1.17;;;5.10;1.00;;;;;;6133621;23;20460;-77
2022/12/02 00:08:00;;;;;;;8.53;2.20;;;5.10;1.00;;;;;;6136684;23;20418;-76
2022/12/02 00:10:30;;;;;;;0.60;0.33;;;5.10;1.00;;;;;;6130405;23;20406;-77
2022/12/02 00:13:10;;;;;;;1.27;1.17;;;5.10;1.00;;;;;;6133247;23;20426;-76
2022/12/02 00:15:41;;;;;;;2.00;1.90;;;5.00;1.00;;;;;;6133703;23;20441;-76
2022/12/02 00:18:10;;;;;;;0.70;0.57;;;5.00;1.00;;;;;;6134272;23;20454;-77
2022/12/02 00:20:40;;;;;;;0.50;0.10;;;;;;;;;;6133426;23;20406;-77
2022/12/02 00:23:08;;;;;;;1.70;1.60;;;5.00;1.00;;;;;;6132820;23;20413;-77
2022/12/02 00:25:36;;;;;;;1.60;1.50;;;5.00;1.00;;;;;;6128453;23;20468;-77
2022/12/02 00:28:04;;;;;;;2.00;0.97;;;5.00;1.00;;;;;;6132802;23;20410;-77
2022/12/02 00:30:32;;;;;;;1.63;1.53;;;5.00;1.00;;;;;;6129904;23;20409;-76
2022/12/02 00:32:59;;;;;;;0.60;0.57;;;5.00;1.00;;;;;;6126882;23;20414;-77
2022/12/02 00:35:27;;;;;;;4.57;4.20;;;4.90;1.00;;;;;;6126766;23;20441;-77
2022/12/02 00:37:56;;;;;;;4.17;1.40;;;4.90;1.00;;;;;;6126950;23;20413;-76
2022/12/02 00:40:25;;;;;;;1.70;1.60;;;4.80;1.00;;;;;;6126115;23;20414;-76
2022/12/02 00:42:53;;;;;;;1.37;0.80;;;4.90;1.00;;;;;;6126175;23;20430;-76
2022/12/02 00:48:06;;;;;;;0.50;0.10;;;4.90;1.00;;;;;;6127283;23;20711;-77
2022/12/02 00:50:34;;;;;;;0.60;0.40;;;4.90;1.00;;;;;;6126988;23;20410;-77
2022/12/02 00:53:03;;;;;;;0.50;0.20;;;4.90;1.00;;;;;;6126587;23;20410;-77
2022/12/02 00:55:31;;;;;;;3.00;2.60;;;;;;;;;;6126842;23;20811;-77
2022/12/02 00:57:59;;;;;;;2.80;1.27;;;4.90;1.00;;;;;;6126154;23;20404;-76
2022/12/02 05:01:22;;;;;;;2.43;1.30;;;;;;;;;;6087046;23;20472;-77
2022/12/02 05:03:49;;;;;;;1.07;0.80;;;4.60;1.00;;;;;;6127086;23;20429;-78
2022/12/02 05:06:17;;;;;;;6.33;2.43;;;4.60;1.00;;;;;;6126936;23;20398;-77
2022/12/02 05:08:45;;;;;;;0.80;0.67;;;4.60;1.00;;;;;;6126489;23;20405;-77
2022/12/02 05:11:14;;;;;;;1.00;0.40;;;4.50;1.00;;;;;;6127676;23;20585;-78
2022/12/02 05:13:42;;;;;;;0.50;0.10;;;4.50;1.00;;;;;;6126436;23;20406;-77
2022/12/02 05:16:10;;;;;;;0.50;0.10;;;4.60;1.00;;;;;;6129251;23;20778;-76
2022/12/02 05:18:39;;;;;;;0.60;0.30;;;4.60;1.00;;;;;;6128915;23;20420;-77
2022/12/02 05:21:07;;;;;;;2.80;2.37;;;4.60;1.00;;;;;;6132253;23;20499;-76
2022/12/02 05:23:35;;;;;;;0.60;0.43;;;4.60;1.00;;;;;;6127273;23;20461;-77
2022/12/02 05:26:02;;;;;;;2.67;2.53;;;4.60;1.00;;;;;;6128087;23;20410;-77
2022/12/02 05:28:30;;;;;;;0.50;0.10;;;4.60;1.00;;;;;;6143920;23;20410;-77
2022/12/02 05:30:58;;;;;;;5.33;4.23;;;4.60;1.00;;;;;;6144043;23;20429;-77
2022/12/02 05:33:26;;;;;;;1.50;1.40;;;4.60;1.00;;;;;;6142638;23;20457;-78
2022/12/02 05:35:55;;;;;;;2.87;2.67;;;4.40;1.00;;;;;;6135013;23;20438;-77
2022/12/02 05:38:23;;;;;;;1.90;1.80;;;4.40;1.00;;;;;;6127708;23;20405;-77
2022/12/02 05:40:52;;;;;;;2.83;2.00;;;4.40;1.00;;;;;;6127517;23;20946;-77
2022/12/02 05:43:21;;;;;;;0.70;0.40;;;4.40;1.00;;;;;;6127635;23;20902;-76
2022/12/02 05:45:49;;;;;;;0.60;0.40;;;4.40;1.00;;;;;;6140447;23;20485;-78
2022/12/02 05:48:19;;;;;;;9.40;4.93;;;4.40;1.00;;;;;;6136697;23;20412;-78
2022/12/02 05:50:47;;;;;;;0.60;0.33;;;4.30;1.00;;;;;;6135416;23;20434;-77
2022/12/02 05:53:23;;;;;;;3.43;3.13;;;4.30;1.00;;;;;;6131895;23;20444;-78
2022/12/02 05:55:51;;;;;;;9.13;1.10;;;4.20;1.00;;;;;;6132114;23;21008;-78
2022/12/02 05:58:19;;;;;;;1.80;0.60;;;4.20;1.00;;;;;;6135906;23;20778;-77
2022/12/02 06:00:53;;;;;;;0.50;0.30;;;4.20;1.00;;;;;;6138880;23;21095;-77
2022/12/02 06:03:21;;;;;;;0.50;0.10;;;4.20;1.00;;;;;;6139496;23;20469;-77
2022/12/02 06:05:52;;;;;;;0.50;0.10;;;4.20;1.00;;;;;;6136552;23;20414;-77
2022/12/02 06:08:23;;;;;;;5.40;2.83;;;4.30;1.00;;;;;;6132785;23;20382;-77
2022/12/02 06:10:55;;;;;;;0.50;0.20;;;4.30;1.00;;;;;;6135791;23;20425;-78
2022/12/02 06:13:26;;;;;;;0.87;0.50;;;4.30;1.00;;;;;;6132255;23;20394;-76
2022/12/02 06:15:54;;;;;;;0.60;0.30;;;4.20;1.00;;;;;;6131058;23;20442;-78
2022/12/02 06:18:26;;;;;;;4.43;3.80;;;4.10;1.00;;;;;;6133928;23;20439;-78
2022/12/02 06:20:57;;;;;;;0.50;0.10;;;4.10;1.00;;;;;;6135308;23;20480;-78
2022/12/02 06:23:29;;;;;;;1.23;0.97;;;4.10;1.00;;;;;;6136312;23;20414;-77
2022/12/02 06:25:58;;;;;;;3.43;3.13;;;4.10;1.00;;;;;;6137643;23;20375;-78
2022/12/02 06:28:29;;;;;;;4.10;3.80;;;4.00;1.00;;;;;;6129999;23;20410;-78
2022/12/02 06:31:00;;;;;;;1.83;1.73;;;4.00;1.00;;;;;;6132475;23;20422;-77
2022/12/02 06:33:33;;;;;;;0.50;0.20;;;4.10;1.00;;;;;;6134797;23;20761;-78
2022/12/02 06:36:04;;;;;;;2.83;2.63;;;4.00;1.00;;;;;;6136233;23;20926;-77
2022/12/02 06:38:37;;;;;;;0.70;0.50;;;4.10;1.00;;;;;;6141017;23;20406;-77
2022/12/02 06:41:15;;;;;;;0.60;0.37;;;4.00;1.00;;;;;;6139678;23;20776;-78
2022/12/02 06:45:03;;;;;;;0.50;0.10;;;4.00;1.00;;;;;;6136040;23;20460;-78
2022/12/02 06:46:34;;;;;;;1.43;1.13;;;4.00;1.00;;;;;;6137330;23;20421;-78
2022/12/02 06:49:02;;;;;;;0.70;0.63;;;;;;;;;;6139800;23;20407;-77
2022/12/02 06:51:30;;;;;;;2.40;2.20;;;4.00;1.00;;;;;;6137455;23;20458;-78
2022/12/02 06:54:00;;;;;;;0.50;0.20;;;3.90;1.00;;;;;;6134885;23;20429;-78
2022/12/02 06:56:29;;;;;;;2.83;2.63;;;3.90;1.00;;;;;;6135836;23;20438;-79
2022/12/02 06:59:00;;;;;;;0.50;0.10;;;3.90;1.00;;;;;;6133548;23;20428;-77
2022/12/02 07:01:31;;;;;;;0.60;0.23;;;3.90;1.00;;;;;;6134095;23;20433;-77
2022/12/02 07:04:30;;;;;;;2.10;1.13;;;4.00;1.00;;;;;;6139848;23;20464;-78
2022/12/02 07:07:02;;;;;;;1.87;1.27;;;3.90;1.00;;;;;;6142960;23;20386;-78
2022/12/02 07:09:36;;;;;;;1.77;1.13;;;3.90;1.00;;;;;;6144566;23;20481;-78
2022/12/02 07:12:12;;;;;;;0.73;0.60;;;3.90;1.00;;;;;;6145873;23;20414;-78
2022/12/02 07:14:45;;;;;;;0.67;0.67;;;3.80;1.00;;;;;;6144486;23;20382;-78
2022/12/02 07:17:21;;;;;;;0.50;0.10;;;3.90;1.00;;;;;;6140686;23;20747;-78
2022/12/02 07:19:56;;;;;;;2.20;1.23;;;3.90;1.00;;;;;;6139492;23;20409;-78
2022/12/02 07:22:31;;;;;;;0.70;0.63;;;3.90;1.00;;;;;;6137648;23;20437;-78
2022/12/02 07:25:26;;;;;;;1.73;1.03;;;3.90;1.00;;;;;;6136755;23;20483;-78
2022/12/02 07:27:54;;;;;;;1.83;1.50;;;3.80;1.00;;;;;;6118605;23;20420;-77
2022/12/02 07:30:25;;;;;;;3.23;3.00;;;3.90;1.00;;;;;;6136912;23;20410;-79
2022/12/02 07:32:53;;;;;;;2.50;2.20;;;3.80;1.00;;;;;;6136280;23;20390;-77
2022/12/02 07:35:22;;;;;;;1.17;0.27;;;3.80;1.00;;;;;;6139944;23;20437;-78
2022/12/02 07:37:50;;;;;;;0.60;0.40;;;3.80;1.00;;;;;;6140152;23;20502;-78
2022/12/02 07:40:20;;;;;;;0.80;0.80;;;3.80;1.00;;;;;;6138192;23;20473;-77
2022/12/02 07:42:48;;;;;;;0.60;0.30;;;3.80;1.00;;;;;;6141245;23;20489;-80
2022/12/02 07:45:19;;;;;;;0.50;0.20;;;3.80;1.00;;;;;;6141681;23;20406;-79
2022/12/02 07:47:47;;;;;;;2.00;1.90;;;3.70;1.00;;;;;;6140797;23;20471;-77
2022/12/02 07:50:16;;;;;;;4.03;1.40;;;3.70;1.00;;;;;;6139979;23;20410;-77
2022/12/02 07:52:44;;;;;;;0.50;0.20;;;;;;;;;;6141378;23;20430;-78
2022/12/02 07:55:12;;;;;;;1.80;1.70;;;3.80;1.00;;;;;;6147719;23;20424;-78
2022/12/02 07:57:41;;;;;;;2.33;2.23;;;3.80;1.00;;;;;;6144594;23;20445;-78
2022/12/02 08:00:10;;;;;;;4.53;2.87;;;3.80;1.00;;;;;;6142151;23;20465;-77
2022/12/02 08:02:39;;;;;;;1.47;1.33;;;3.80;1.00;;;;;;6140254;23;20438;-77
2022/12/02 08:05:08;;;;;;;0.50;0.20;;;3.70;1.00;;;;;;6140537;23;20406;-78
2022/12/02 08:07:36;;;;;;;0.50;0.20;;;3.70;1.00;;;;;;6139099;23;20406;-78
2022/12/02 08:10:04;;;;;;;0.50;0.20;;;3.70;1.00;;;;;;6137755;23;20410;-77
2022/12/02 08:12:32;;;;;;;1.53;1.43;;;3.70;1.00;;;;;;6138048;23;20437;-78
2022/12/02 08:15:01;;;;;;;0.50;0.10;;;3.70;1.00;;;;;;6140173;23;20927;-77
2022/12/02 08:17:29;;;;;;;0.60;0.40;;;3.70;1.00;;;;;;6141191;23;20441;-81
2022/12/02 08:20:00;;;;;;;1.03;0.93;;;;;;;;;;6135973;23;20406;-80
2022/12/02 08:22:28;;;;;;;0.90;0.73;;;3.80;1.00;;;;;;6137279;23;20449;-78
2022/12/02 08:24:56;;;;;;;0.90;0.60;;;3.70;1.00;;;;;;6137021;23;20410;-78
2022/12/02 08:27:24;;;;;;;0.60;0.30;;;3.70;1.00;;;;;;6138335;23;20460;-77
2022/12/02 08:29:52;;;;;;;0.50;0.10;;;3.70;1.00;;;;;;6137460;23;20410;-78
2022/12/02 08:32:22;;;;;;;0.50;0.10;;;3.60;1.00;;;;;;6140984;23;20458;-78
2022/12/02 08:34:50;;;;;;;1.43;1.00;;;3.60;1.00;;;;;;6142637;23;20434;-77
2022/12/02 08:37:18;;;;;;;0.50;0.10;;;3.70;1.00;;;;;;6137469;23;20448;-77
2022/12/02 08:39:46;;;;;;;0.50;0.17;;;3.70;1.00;;;;;;6135477;23;20406;-78
2022/12/02 08:42:14;;;;;;;0.50;0.10;;;3.60;1.00;;;;;;6140809;23;20430;-78
2022/12/02 08:44:42;;;;;;;0.50;0.20;;;3.60;1.00;;;;;;6139179;23;20421;-77
2022/12/02 08:47:10;;;;;;;3.03;2.83;;;3.60;1.00;;;;;;6138873;23;20414;-79
2022/12/02 08:49:39;;;;;;;1.63;0.90;;;3.60;1.00;;;;;;6138840;23;20426;-77
2022/12/02 08:52:10;;;;;;;3.73;2.93;;;3.60;1.00;;;;;;6139070;23;20430;-78
2022/12/02 08:54:39;;;;;;;2.87;1.30;;;3.60;1.00;;;;;;6137569;23;20412;-76
2022/12/02 08:57:07;;;;;;;1.53;1.43;;;3.50;1.00;;;;;;6133384;23;20531;-79
2022/12/02 08:59:35;;;;;;;0.93;0.93;;;3.50;1.00;;;;;;6140644;23;20417;-79
2022/12/02 09:02:03;;;;;;;1.17;1.07;;;3.50;1.00;;;;;;6140559;23;20823;-78
2022/12/02 09:04:32;;;;;;;0.50;0.20;;;3.60;1.00;;;;;;6141657;23;20433;-77
2022/12/02 09:07:01;;;;;;;0.93;0.93;;;3.60;1.00;;;;;;6136833;23;20755;-77
2022/12/02 09:09:29;;;;;;;1.30;1.20;;;3.50;1.00;;;;;;6133967;23;20406;-77
2022/12/02 09:11:57;;;;;;;1.53;1.43;;;3.50;1.00;;;;;;6137407;23;20454;-78
2022/12/02 09:14:25;;;;;;;1.33;0.60;;;3.60;1.00;;;;;;6137313;23;20406;-79
2022/12/02 09:16:53;;;;;;;0.50;0.20;;;3.50;1.00;;;;;;6138796;23;20406;-79
2022/12/02 09:19:21;;;;;;;0.50;0.10;;;3.60;1.00;;;;;;6137097;23;20441;-79
2022/12/02 09:21:48;;;;;;;2.10;2.00;;;3.60;1.00;;;;;;6139362;23;20474;-78
2022/12/02 09:24:24;;;;;;;0.50;0.10;;;3.60;1.00;;;;;;6137601;23;20445;-79
2022/12/02 09:26:52;;;;;;;0.50;0.10;;;3.60;1.00;;;;;;6138646;23;20409;-79
2022/12/02 09:29:19;;;;;;;0.50;0.10;;;3.60;1.00;;;;;;6142020;23;20429;-77
2022/12/02 09:31:48;;;;;;;1.13;0.97;;;3.70;1.00;;;;;;6139918;23;20430;-78
2022/12/02 09:34:15;;;;;;;0.50;0.10;;;3.70;1.00;;;;;;6145336;23;20437;-78
2022/12/02 09:36:43;;;;;;;0.90;0.60;;;3.70;1.00;;;;;;6144499;23;20474;-78
2022/12/02 09:39:11;;;;;;;3.77;1.27;;;3.70;1.00;;;;;;6144166;23;20438;-78
2022/12/02 09:41:40;;;;;;;0.93;0.73;;;3.70;1.00;;;;;;6140036;23;20426;-77
2022/12/02 09:44:20;;;;;;;5.13;2.37;;;3.80;1.00;;;;;;6142341;23;20418;-79
2022/12/02 09:46:48;;;;;;;1.10;1.00;;;3.80;1.00;;;;;;6137876;23;20454;-79
2022/12/02 09:49:17;;;;;;;2.40;2.30;;;3.70;1.00;;;;;;6137303;23;20406;-78
2022/12/02 09:51:44;;;;;;;1.33;0.60;;;3.70;1.00;;;;;;6134772;23;20426;-78
2022/12/02 09:54:15;;;;;;;0.70;0.40;;;3.70;1.00;;;;;;6135108;23;20412;-78
2022/12/02 09:56:44;;;;;;;0.50;0.10;;;3.70;1.00;;;;;;6137839;23;20442;-77
2022/12/02 09:59:16;;;;;;;5.13;1.03;;;3.70;1.00;;;;;;6134136;23;20504;-78
2022/12/02 10:01:46;;;;;;;0.50;0.10;;;3.70;1.00;;;;;;6135630;23;20997;-78
2022/12/02 10:04:17;;;;;;;2.40;2.30;;;3.70;1.00;;;;;;6134977;23;20413;-78
2022/12/02 10:06:44;;;;;;;3.33;3.03;;;3.70;1.00;;;;;;6137428;23;20772;-77
2022/12/02 10:09:16;;;;;;;0.73;0.70;;;3.70;1.00;;;;;;6137163;23;20422;-79
2022/12/02 10:11:46;;;;;;;1.77;0.83;;;;;;;;;;6140814;23;20430;-79
2022/12/02 10:14:15;;;;;;;0.63;0.63;;;3.70;1.00;;;;;;6139706;23;20469;-78
2022/12/02 10:16:43;;;;;;;2.50;1.27;;;3.70;1.00;;;;;;6137611;23;20406;-77
2022/12/02 10:19:16;;;;;;;0.70;0.47;;;3.80;1.00;;;;;;6137664;23;20508;-77
2022/12/02 10:21:44;;;;;;;10.73;10.10;;;3.80;1.00;;;;;;6145803;23;20425;-78
2022/12/02 10:24:12;;;;;;;0.50;0.10;;;3.80;1.00;;;;;;6143480;23;20437;-77
2022/12/02 10:26:45;;;;;;;0.60;0.57;;;3.80;1.00;;;;;;6143298;23;20398;-78
2022/12/02 10:29:18;;;;;;;0.50;0.10;;;3.90;1.00;;;;;;6140165;23;20406;-77
2022/12/02 10:31:57;;;;;;;0.83;0.50;;;3.90;1.00;;;;;;6141475;23;20426;-78
2022/12/02 10:34:27;;;;;;;1.90;1.80;;;3.90;1.00;;;;;;6141861;23;20386;-80
2022/12/02 10:36:56;;;;;;;0.70;0.40;;;;;;;;;;6137558;23;20398;-78
2022/12/02 10:39:26;;;;;;;7.63;7.23;;;3.80;1.00;;;;;;6140231;23;20438;-78
2022/12/02 10:42:20;;;;;;;0.50;0.20;;;3.90;1.00;;;;;;6140434;23;20453;-78
2022/12/02 10:45:07;;;;;;;0.50;0.13;;;3.80;1.00;;;;;;6135727;23;20871;-77
2022/12/02 10:47:35;;;;;;;2.37;2.27;;;3.80;1.00;;;;;;6136909;23;20409;-78
2022/12/02 10:50:04;;;;;;;0.50;0.10;;;3.80;1.00;;;;;;6136858;23;20430;-78
2022/12/02 10:52:35;;;;;;;3.10;2.90;;;3.80;1.00;;;;;;6138544;23;20429;-79
2022/12/02 10:55:04;;;;;;;0.50;0.10;;;3.90;1.00;;;;;;6138054;23;20420;-78
2022/12/02 10:57:34;;;;;;;0.50;0.10;;;3.90;1.00;;;;;;6138261;23;20398;-80
2022/12/02 11:00:12;;;;;;;0.50;0.10;;;3.80;1.00;;;;;;6137132;23;20493;-77
2022/12/02 11:02:45;;;;;;;6.40;2.40;;;3.90;1.00;;;;;;6133417;23;20441;-78
2022/12/02 11:05:17;;;;;;;0.50;0.20;;;3.90;1.00;;;;;;6126468;23;20421;-78
2022/12/02 11:07:56;;;;;;;0.50;0.10;;;3.90;1.00;;;;;;6129150;23;20418;-78
2022/12/02 11:10:27;;;;;;;5.93;0.90;;;3.90;1.00;;;;;;6128256;23;20441;-78
2022/12/02 11:13:23;;;;;;;3.77;0.50;;;3.90;1.00;;;;;;6126619;23;20405;-79
2022/12/02 11:15:52;;;;;;;0.50;0.10;;;3.90;1.00;;;;;;6134667;23;20447;-77
2022/12/02 11:18:51;;;;;;;6.53;6.23;;;3.90;1.00;;;;;;6140016;23;20478;-79
2022/12/02 11:21:37;;;;;;;0.50;0.10;;;3.80;1.00;;;;;;6138541;23;20433;-80
2022/12/02 11:24:34;;;;;;;3.60;3.40;;;3.80;1.00;;;;;;6145307;23;20382;-78
2022/12/02 11:27:12;;;;;;;0.77;0.63;;;3.80;1.00;;;;;;6141282;23;20402;-77
2022/12/02 11:30:15;;;;;;;0.90;0.30;;;3.70;1.00;;;;;;6140844;23;20379;-79
2022/12/02 11:32:51;;;;;;;0.50;0.10;;;3.80;1.00;;;;;;6126359;23;20438;-77
2022/12/02 11:35:57;;;;;;;2.40;2.30;;;3.80;1.00;;;;;;6136439;23;20414;-80
2022/12/02 11:38:27;;;;;;;0.50;0.10;;;3.80;1.00;;;;;;6140318;23;20405;-78
2022/12/02 11:41:00;;;;;;;0.60;0.37;;;3.80;1.00;;;;;;6137491;23;20444;-79
2022/12/02 11:43:41;;;;;;;0.97;0.53;;;3.80;1.00;;;;;;6136433;23;20441;-80
2022/12/02 11:46:10;;;;;;;0.50;0.13;;;3.80;1.00;;;;;;6140231;23;20405;-78
2022/12/02 11:48:46;;;;;;;0.50;0.10;;;3.80;1.00;;;;;;6137957;23;20394;-79
2022/12/02 11:51:39;;;;;;;3.50;2.23;;;3.80;1.00;;;;;;6137578;23;20439;-80
2022/12/02 11:54:15;;;;;;;3.10;2.90;;;3.80;1.00;;;;;;6137088;23;20394;-78
2022/12/02 11:56:46;;;;;;;0.50;0.10;;;3.80;1.00;;;;;;6140553;23;20390;-78
2022/12/02 11:59:21;;;;;;;4.20;2.10;;;3.80;1.00;;;;;;6139572;23;20449;-77
2022/12/02 12:01:49;;;;;;;2.60;1.53;;;4.90;1.00;;;;;;6136379;23;20467;-79
2022/12/02 12:04:25;;;;;;;0.50;0.10;;;3.80;1.00;;;;;;6140983;23;20406;-80
2022/12/02 12:06:55;;;;;;;1.03;0.93;;;3.90;1.00;;;;;;6137846;23;20437;-80
2022/12/02 12:09:23;;;;;;;1.07;0.83;;;3.90;1.00;;;;;;6140214;23;20414;-78
2022/12/02 12:12:15;;;;;;;6.50;5.97;;;3.90;1.00;;;;;;6135146;23;20422;-78
2022/12/02 12:14:58;;;;;;;0.50;0.20;;;3.90;1.00;;;;;;6137731;23;20428;-78
2022/12/02 12:17:45;;;;;;;4.83;0.67;;;3.90;1.00;;;;;;6139970;23;20458;-80
2022/12/02 12:20:43;;;;;;;0.50;0.20;;;3.90;1.00;;;;;;6137439;23;20497;-79
2022/12/02 12:23:31;;;;;;;2.30;0.60;;;3.80;1.00;;;;;;6135707;23;20402;-77
2022/12/02 12:25:59;;;;;;;4.23;1.70;;;3.90;1.00;;;;;;6139041;23;20406;-77
2022/12/02 12:28:29;;;;;;;0.50;0.30;;;3.90;1.00;;;;;;6141638;23;20406;-78
2022/12/02 12:30:58;;;;;;;0.70;0.37;;;3.90;1.00;;;;;;6141839;23;20422;-79
2022/12/02 12:33:27;;;;;;;4.27;4.07;;;3.90;1.00;;;;;;6147349;23;20470;-77
2022/12/02 12:35:58;;;;;;;1.00;0.83;;;3.90;1.00;;;;;;6146516;23;20514;-78
2022/12/02 12:38:27;;;;;;;0.50;0.30;;;3.90;1.00;;;;;;6145503;23;20406;-78
2022/12/02 12:40:58;;;;;;;0.60;0.40;;;;;;;;;;6139718;23;20476;-77
2022/12/02 12:43:35;;;;;;;0.77;0.30;;;;;;;;;;6138376;23;20511;-80
2022/12/02 12:46:03;;;;;;;0.50;0.20;;;3.80;1.00;;;;;;6133293;23;20476;-77
2022/12/02 12:48:31;;;;;;;0.50;0.10;;;3.80;1.00;;;;;;6136082;23;20452;-79
2022/12/02 12:51:00;;;;;;;4.77;4.47;;;3.80;1.00;;;;;;6134994;23;20437;-77
2022/12/02 12:53:28;;;;;;;0.50;0.20;;;3.80;1.00;;;;;;6137882;23;20410;-78
2022/12/02 12:55:56;;;;;;;0.50;0.20;;;3.80;1.00;;;;;;6140020;23;20929;-79
2022/12/02 12:58:28;;;;;;;25.20;23.03;;;3.80;1.00;;;;;;6139701;23;20390;-77
2022/12/02 13:00:56;;;;;;;8.70;8.30;;;3.90;1.00;;;;;;6137329;23;20502;-78
2022/12/02 13:03:24;;;;;;;0.70;0.53;;;3.90;1.00;;;;;;6138373;23;20891;-78
2022/12/02 13:05:54;;;;;;;0.50;0.10;;;3.90;1.00;;;;;;6135491;23;20414;-77
2022/12/02 13:08:24;;;;;;;1.07;0.40;;;;;;;;;;6136587;23;20390;-78
2022/12/02 13:10:52;;;;;;;2.00;0.80;;;3.90;1.00;;;;;;6138196;23;20422;-79
2022/12/02 13:13:20;;;;;;;0.50;0.10;;;3.90;1.00;;;;;;6139949;23;20418;-79
2022/12/02 13:15:48;;;;;;;3.30;2.00;;;3.90;1.00;;;;;;6135079;23;20472;-78
2022/12/02 13:18:16;;;;;;;4.67;3.80;;;3.90;1.00;;;;;;6134946;23;20477;-76
2022/12/02 13:20:44;;;;;;;9.93;9.23;;;3.90;1.00;;;;;;6138197;23;20446;-76
2022/12/02 13:23:27;;;;;;;0.50;0.10;;;;;;;;;;6137372;23;20409;-80
2022/12/02 13:26:18;;;;;;;1.83;0.93;;;;;;;;;;6140811;23;20410;-77
2022/12/02 13:29:13;;;;;;;1.23;1.13;;;3.90;1.00;;;;;;6138361;23;20405;-78
2022/12/02 13:32:06;;;;;;;2.70;0.90;;;;;;;;;;6143753;23;20422;-80
2022/12/02 13:34:40;;;;;;;0.60;0.30;;;;;;;;;;6142790;23;20424;-78
2022/12/02 13:37:10;;;;;;;1.30;0.73;;;;;;;;;;6144573;23;20806;-79
2022/12/02 13:39:52;;;;;;;0.70;0.63;;;;;;;;;;6144833;23;20491;-81
2022/12/02 13:42:33;;;;;;;0.50;0.10;;;;;;;;;;6142574;23;20426;-81
2022/12/02 13:45:06;;;;;;;0.93;0.93;;;;;;;;;;6140109;23;20504;-79
2022/12/02 13:47:46;;;;;;;0.50;0.20;;;;;;;;;;6130016;23;20782;-78
2022/12/02 13:50:33;;;;;;;0.50;0.20;;;;;;;;;;6121636;23;20744;-78
2022/12/02 13:53:25;;;;;;;2.67;2.47;;;;;;;;;;6133512;23;20412;-78
2022/12/02 13:56:30;;;;;;;0.60;0.40;;;;;;;;;;6133217;23;20413;-80
2022/12/02 13:59:31;;;;;;;0.83;0.83;;;;;;;;;;6128388;23;20492;-79
2022/12/02 14:02:13;;;;;;;0.50;0.10;;;;;;;;;;6132636;23;20660;-80
2022/12/02 14:04:45;;;;;;;1.63;0.97;;;;;;;;;;6130188;23;20429;-79
2022/12/02 14:07:21;;;;;;;0.50;0.10;;;;;;;;;;6129252;23;20729;-80
2022/12/02 14:09:54;;;;;;;0.50;0.30;;;;;;;;;;6129795;23;20441;-82
2022/12/02 14:12:32;;;;;;;0.50;0.20;;;;;;;;;;6131734;23;20437;-81
2022/12/02 14:15:36;;;;;;;2.70;2.50;;;;;;;;;;6131213;23;20525;-80
2022/12/02 14:18:11;;;;;;;0.50;0.20;;;;;;;;;;6129050;23;20440;-79
2022/12/02 14:20:56;;;;;;;0.50;0.30;;;;;;;;;;6129252;23;20528;-80
2022/12/02 14:23:49;;;;;;;1.80;1.70;;;;;;;;;;6131726;23;20382;-79
2022/12/02 14:26:38;;;;;;;0.50;0.10;;;;;;;;;;6130935;23;20985;-79
2022/12/02 14:29:19;;;;;;;0.60;0.20;;;;;;;;;;6130381;23;20437;-79
2022/12/02 14:35:08;;;;;;;0.50;0.10;;;;;;;;;;6013154;23;20814;-80
2022/12/02 14:37:46;;;;;;;2.73;2.10;;;;;;;;;;6131337;23;20492;-79
2022/12/02 14:40:30;;;;;;;0.60;0.50;;;;;;;;;;6129301;23;20450;-79
2022/12/02 14:43:11;;;;;;;2.47;0.73;;;;;;;;;;6130650;23;20437;-79
2022/12/02 14:45:57;;;;;;;0.50;0.10;;;;;;;;;;6118795;23;20442;-78
2022/12/02 14:48:50;;;;;;;0.60;0.50;;;;;;;;;;6130487;23;20401;-79
2022/12/02 14:51:54;;;;;;;0.80;0.38;;;;;;;;;;6127738;23;20391;-79
2022/12/02 14:57:38;;;;;;;0.50;0.10;;;;;;;;;;6120731;23;20414;-80
2022/12/02 15:07:10;;;;;;;0.50;0.10;;;;;;;;;;6128339;23;20423;-79
2022/12/02 15:10:08;;;;;;;0.50;0.10;;;;;;;;;;6081934;23;20492;-78
2022/12/02 15:13:01;;;;;;;0.50;0.20;;;;;;;;;;6132927;23;20461;-78
2022/12/02 15:15:47;;;;;;;0.70;0.67;;;;;;;;;;6127546;23;20421;-77
2022/12/02 15:24:28;;;;;;;0.63;0.53;;;;;;;;;;6127104;23;20897;-79
2022/12/02 15:30:19;;;;;;;0.77;0.67;;;;;;;;;;6135147;23;20398;-79
2022/12/02 15:43:02;;;;;;;;;;;;;;;;;;;;;
2022/12/02 15:46:00;;;;;;;1.07;0.33;;;;;;;;;;6139684;23;20926;-78
2022/12/02 15:48:46;;;;;;;0.50;0.10;;;;;;;;;;6139873;23;20406;-79
2022/12/02 15:51:32;;;;;;;0.60;0.53;;;;;;;;;;6140637;23;20456;-80
2022/12/02 15:54:27;;;;;;;2.00;1.90;;;;;;;;;;6162757;23;20423;-81
2022/12/02 15:59:56;;;;;;;0.93;0.93;;;;;;;;;;6159750;23;20761;-77
2022/12/02 16:02:26;;;;;;;0.57;0.30;;;3.80;1.00;;;;;;6156950;23;20563;-77
2022/12/02 16:04:54;;;;;;;0.93;0.50;;;3.80;1.00;;;;;;6157609;23;20405;-78
2022/12/02 16:07:21;;;;;;;2.10;1.07;;;3.70;1.00;;;;;;6158565;23;20416;-78
2022/12/02 16:09:50;;;;;;;0.50;0.10;;;;;;;;;;6160301;23;20397;-78
2022/12/02 16:12:18;;;;;;;0.50;0.20;;;3.70;1.00;;;;;;6160295;23;20425;-77
2022/12/02 16:14:46;;;;;;;3.23;3.03;;;3.70;1.00;;;;;;6156160;23;20424;-75
2022/12/02 16:17:21;;;;;;;1.17;1.07;;;3.70;1.00;;;;;;6161388;23;20398;-78
2022/12/02 16:19:51;;;;;;;0.50;0.10;;;3.70;1.00;;;;;;6162287;23;20405;-79
2022/12/02 16:22:20;;;;;;;0.50;0.30;;;3.70;1.00;;;;;;6157789;23;20794;-77
2022/12/02 16:24:48;;;;;;;0.60;0.40;;;3.70;1.00;;;;;;6157817;23;20459;-78
2022/12/02 16:27:16;;;;;;;2.10;2.00;;;3.70;1.00;;;;;;6160400;23;20409;-78
2022/12/02 16:29:46;;;;;;;0.50;0.10;;;3.70;1.00;;;;;;6163812;23;20834;-78
2022/12/02 16:32:33;;;;;;;;;;;;;;;;;;;;;
2022/12/02 16:35:10;;;;;;;0.50;0.10;;;3.80;1.00;;;;;;6167856;23;20421;-79
2022/12/02 16:37:41;;;;;;;1.60;1.27;;;;;;;;;;6163125;23;20428;-78
2022/12/02 16:40:11;;;;;;;3.50;2.83;;;3.80;1.00;;;;;;6162118;23;20481;-78
2022/12/02 16:42:38;;;;;;;1.03;0.93;;;3.80;1.00;;;;;;6161972;23;20452;-78
2022/12/02 16:45:07;;;;;;;0.50;0.20;;;3.70;1.00;;;;;;6161584;23;20405;-79
2022/12/02 16:47:35;;;;;;;0.50;0.10;;;3.80;1.00;;;;;;6162527;23;20408;-78
2022/12/02 16:50:04;;;;;;;0.50;0.10;;;3.70;1.00;;;;;;6161759;23;20410;-78
2022/12/02 16:52:33;;;;;;;0.87;0.87;;;3.70;1.00;;;;;;6161900;23;20465;-79
2022/12/02 16:55:01;;;;;;;0.50;0.20;;;3.60;1.00;;;;;;6163272;23;20522;-78
2022/12/02 16:57:29;;;;;;;0.60;0.43;;;3.60;1.00;;;;;;6162325;23;20412;-78
2022/12/02 16:59:57;;;;;;;0.50;0.10;;;3.60;1.00;;;;;;6162834;23;20495;-79
2022/12/02 17:02:25;;;;;;;0.70;0.53;;;3.70;1.00;;;;;;6164245;23;20445;-77
2022/12/02 17:04:59;;;;;;;0.50;0.10;;;3.70;1.00;;;;;;6167167;23;20452;-80
2022/12/02 17:07:26;;;;;;;2.47;1.83;;;3.70;1.00;;;;;;6167315;23;20425;-80
2022/12/02 17:09:59;;;;;;;1.70;1.60;;;3.60;1.00;;;;;;6166207;23;20858;-80
2022/12/02 17:12:26;;;;;;;0.50;0.10;;;3.60;1.00;;;;;;6165540;23;20460;-78
2022/12/02 17:14:54;;;;;;;1.03;0.40;;;3.60;1.00;;;;;;6161010;23;20935;-78
2022/12/02 17:17:22;;;;;;;0.50;0.10;;;3.60;1.00;;;;;;6159904;23;20930;-77
2022/12/02 17:20:10;;;;;;;0.50;0.20;;;;;;;;;;6162784;23;20401;-79
2022/12/02 17:22:38;;;;;;;0.50;0.20;;;3.60;1.00;;;;;;6160274;23;20992;-78
2022/12/02 17:25:09;;;;;;;0.50;0.10;;;3.60;1.00;;;;;;6159229;23;20405;-78
2022/12/02 17:27:37;;;;;;;2.10;1.47;;;;;;;;;;6157512;23;20436;-78
2022/12/02 17:30:07;;;;;;;0.50;0.10;;;3.60;1.00;;;;;;6159325;23;20508;-78
2022/12/02 17:32:34;;;;;;;0.50;0.10;;;3.60;1.00;;;;;;6160184;23;20433;-79
2022/12/02 17:35:04;;;;;;;3.13;1.50;;;3.60;1.00;;;;;;6158585;23;20409;-79
2022/12/02 17:37:32;;;;;;;0.70;0.50;;;3.60;1.00;;;;;;6164108;23;20411;-78
2022/12/02 17:40:00;;;;;;;0.50;0.10;;;3.50;1.00;;;;;;6159497;23;20409;-78
2022/12/02 17:42:29;;;;;;;1.00;0.70;;;3.50;1.00;;;;;;6155777;23;20499;-79
2022/12/02 17:44:57;;;;;;;0.50;0.10;;;3.40;1.00;;;;;;6156452;23;20965;-77
2022/12/02 17:47:25;;;;;;;0.63;0.63;;;3.40;1.00;;;;;;6157523;23;20405;-79
2022/12/02 17:49:53;;;;;;;0.60;0.30;;;;;;;;;;6160041;23;20409;-80
2022/12/02 17:52:21;;;;;;;0.50;0.30;;;3.30;1.00;;;;;;6157266;23;20484;-79
2022/12/02 17:54:49;;;;;;;0.80;0.40;;;3.30;1.00;;;;;;6155869;23;20421;-77
2022/12/02 17:57:18;;;;;;;0.50;0.10;;;3.30;1.00;;;;;;6160472;23;20406;-78
2022/12/02 17:59:47;;;;;;;5.50;1.27;;;3.20;1.00;;;;;;6163197;23;20398;-77
2022/12/02 18:02:15;;;;;;;0.80;0.60;;;3.30;1.00;;;;;;6158958;23;20441;-79
2022/12/02 18:04:43;;;;;;;0.77;0.77;;;3.20;1.00;;;;;;6159957;23;20409;-80
2022/12/02 18:07:12;;;;;;;0.60;0.20;;;3.20;1.00;;;;;;6158193;23;20432;-78
2022/12/02 18:09:40;;;;;;;0.50;0.10;;;3.20;1.00;;;;;;6165423;23;20406;-78
2022/12/02 18:12:09;;;;;;;0.57;0.33;;;3.20;1.00;;;;;;6165236;23;20425;-78
2022/12/02 18:14:37;;;;;;;2.03;1.93;;;3.20;1.00;;;;;;6164318;23;20467;-79
2022/12/02 18:17:06;;;;;;;0.60;0.43;;;3.20;1.00;;;;;;6163355;23;20415;-78
2022/12/02 18:19:35;;;;;;;0.50;0.10;;;3.10;1.00;;;;;;6157918;23;20408;-79
2022/12/02 18:22:02;;;;;;;0.60;0.40;;;3.10;1.00;;;;;;6157641;23;20445;-78
2022/12/02 18:24:30;;;;;;;0.50;0.20;;;3.10;1.00;;;;;;6158733;23;20468;-78
2022/12/02 18:26:58;;;;;;;2.27;2.00;;;3.00;1.00;;;;;;6158158;23;20405;-79
2022/12/02 18:29:26;;;;;;;0.60;0.50;;;3.00;1.00;;;;;;6158707;23;20405;-79
2022/12/02 18:31:53;;;;;;;0.50;0.10;;;3.00;1.00;;;;;;6157372;23;20417;-78
2022/12/02 18:34:23;;;;;;;0.50;0.10;;;3.00;1.00;;;;;;6156725;23;20409;-76